Historique des mesures à Cassis (13260), France
Quotidien Résumé Novembre 13, 2017 Unités:  Métrique    US   Métrique/US
« Précédent (Jour)
Suivant (Jour) »
Quotidien Hebdomadaire Mensuel Annuel Période au choix
  Maximum: Minimum: Moyenne:
Température: TemperatureC °C 7.4 °C 9.2 °C
Point de rosée: DewpointC °C -3.2 °C -0.5 °C
Humidité: Humidity % 41 % 48 %
Vitesse du vent: 0 km/h 12.2 km/h 34 km/h
Rafales: 0 km/h - -
Vent:- - SSW
Pression: PressurehPa hPa 999.9 hPa -
Précipitations: 1.5 mm    
Historical Graphs
 
 
Mesures pour : Novembre 13, 2017
Heure Temperature Point de rosée Pression Vent Vitesse du vent Rafales Humidité Pluie (par heure) Conditions
TemperatureC °C DewpointC °C PressurehPa hPa Calm     Humidity % HourlyPrecipMM mm SoftwareType W/m2
00:10 9.6 °C 2.0 °C 1000.6 hPa NNW 53.9 km/h 53.9 km/h 59 % 0.0 mm open2300-1.11 W/m2
01:11 9.2 °C 0.1 °C 1002.6 hPa NNW 41.2 km/h 48.6 km/h 53 % 0.5 mm open2300-1.11 W/m2
02:10 8.4 °C -0.9 °C 1003.3 hPa North 38.3 km/h 42.6 km/h 52 % 0.5 mm open2300-1.11 W/m2
03:11 8.1 °C -1.4 °C 1003.9 hPa NNE 33.6 km/h 33.6 km/h 51 % 0.0 mm open2300-1.11 W/m2
05:11 7.4 °C -0.6 °C 1003.6 hPa North 27.2 km/h 56.6 km/h 57 % 0.0 mm open2300-1.11 W/m2
06:10 7.5 °C -1.0 °C 1002.9 hPa WNW 49.2 km/h 49.2 km/h 55 % 0.0 mm open2300-1.11 W/m2
07:11 7.7 °C 0.2 °C 1002.6 hPa WNW 59.1 km/h 63.7 km/h 59 % 0.0 mm open2300-1.11 W/m2
08:10 8.1 °C 0.1 °C 1002.6 hPa NNW 22 km/h 47.3 km/h 57 % 0.5 mm open2300-1.11 W/m2
09:11 8.9 °C 0.1 °C 1001.9 hPa NNW 26.7 km/h 29.5 km/h 54 % 0.0 mm open2300-1.11 W/m2
10:10 9.3 °C 0.2 °C 1001.6 hPa NNE 51 km/h 51 km/h 53 % 0.0 mm open2300-1.11 W/m2
11:11 10.3 °C 0.4 °C 1002.3 hPa NW 48.6 km/h 91.4 km/h 50 % 0.0 mm open2300-1.11 W/m2
12:10 10.8 °C 0.8 °C 1001.9 hPa NNE 34.1 km/h 45.9 km/h 50 % 0.0 mm open2300-1.11 W/m2
13:11 11.3 °C 0.9 °C 999.9 hPa NNE 33.6 km/h 53.3 km/h 49 % 0.0 mm open2300-1.11 W/m2
14:10 11.4 °C 0.4 °C 1000.2 hPa North 39.4 km/h 74.8 km/h 47 % 0.0 mm open2300-1.11 W/m2
15:11 11.6 °C 0.3 °C 1000.9 hPa North 36 km/h 36 km/h 46 % 0.0 mm open2300-1.11 W/m2
16:10 11.6 °C 0.3 °C 1002.3 hPa NNW 20.3 km/h 33.2 km/h 46 % 0.0 mm open2300-1.11 W/m2
17:11 10.7 °C -0.5 °C 1001.2 hPa NNW 51 km/h 54.4 km/h 46 % 0.0 mm open2300-1.11 W/m2
18:10 10.3 °C -0.9 °C 1002.3 hPa NNW 22.5 km/h 26.7 km/h 46 % 0.0 mm open2300-1.11 W/m2
19:11 10.1 °C -1.1 °C 1002.9 hPa NW 26.2 km/h 26.2 km/h 46 % 0.0 mm open2300-1.11 W/m2
20:10 10.0 °C -2.4 °C 1004.3 hPa NNW 12.2 km/h 47.3 km/h 42 % 0.0 mm open2300-1.11 W/m2
21:11 10.1 °C -2.6 °C 1005.3 hPa NW 40.7 km/h 40.7 km/h 41 % 0.0 mm open2300-1.11 W/m2
22:10 9.4 °C -3.2 °C 1006.7 hPa NW 24.8 km/h 24.8 km/h 41 % 0.0 mm open2300-1.11 W/m2
23:11 9.7 °C -2.7 °C 1006.3 hPa North 23 km/h 37.5 km/h 42 % 0.0 mm open2300-1.11 W/m2
Observations météo à CASSIS
WU-History script by Weather Underground - 1 mb